Howard City, MI (49329)

7:59 PM EDT on September 01, 2014 (GMT -0400)
Ensley Center - Snow Farm | Change Station
CLOSE
Current Station
Personal Weather Station
Location: Howard City, MI
Elevation: 982 ft
Nearby Weather Stations

Elev 982 ft 43.36 °N, 85.62 °W | Updated 1 minute ago

Mostly Cloudy
Mostly Cloudy
73.9 °F
Feels Like 75 °F
N
6.8
Wind Variable Wind from WSW

Today
High -- | Low -- °F
--% Chance of Precip.
Yesterday
High -- | Low -- °F
Precip. -- in
7:05 AM 8:17 PM
Waxing Crescent, 45% visible
Pressure 29.74 in
Visibility 10.0 miles
Clouds Scattered Clouds 2700 ft
Scattered Clouds 3700 ft
Mostly Cloudy 4800 ft
Heat Index 75 °F
Dew Point 66 °F
Humidity 76%
Rainfall 0.65 in
Snow Depth Not available.
UV 0 out of 12
Pollen 9.10 out of 12
Ozone Good
Flu Activity Not available.
METAR KRQB 012354Z AUTO 23006KT 10SM SCT027 SCT037 BKN048 23/21 A2974 RMK AO2 T02310205 10259 20230

More Conditions Fewer Conditions

Pressure 29.74 in
Visibility 10.0 miles
Clouds Scattered Clouds 2700 ft
Scattered Clouds 3700 ft
Mostly Cloudy 4800 ft
Heat Index 75 °F
Dew Point 66 °F
Humidity 76%
Rainfall 0.65 in
Snow Depth Not available.
UV 0 out of 12
Pollen 9.10 out of 12
Ozone Good
Flu Activity Not available.
METAR KRQB 012354Z AUTO 23006KT 10SM SCT027 SCT037 BKN048 23/21 A2974 RMK AO2 T02310205 10259 20230

More Conditions Fewer Conditions

10-Day Weather Forecast

Almanac

Astronomy

Sep. 01, 2014 Rise Set
Actual Time 7:05 AM EDT 8:17 PM EDT
Civil Twilight 6:36 AM EDT 8:46 PM EDT
Nautical Twilight 6:01 AM EDT 9:21 PM EDT
Astronomical Twilight 5:23 AM EDT 9:58 PM EDT
Moon 2:02 PM EDT No Moon Set
Length of Visible Light 14h 10m
Length of Day
13h 11m
Tomorrow will be 2m 52s shorter.
Waxing Crescent, 45% of the Moon is Illuminated
Today
Waxing Crescent
Sep 2
First Quarter
Sep 8
Full
Sep 15
Last Quarter
Sep 24
New

Today's Extremes

State Highs State Lows

Community

WunderPhotos

Upload Photos

1,749,440 photos uploaded!

Nearby

Air Quality

  Air Quality AQ Index Pollutant
Yesterday Good
OZONE
Current Good
OZONE
Monday Good
OZONE
Monday Good
PM2.5
Tuesday Good
OZONE
Tuesday Good
PM2.5

Snow Depth

Station Depth Elevation
No new snow has been reported.

Earthquake Activity

City Distance Mag. Time & Date
No recent earthquake activity has been reported nearby.
Minimum magnitude displayed is 2.5.

Coastal Water Temperatures

Place Temperature
No Stations Reporting

Nearby Weather Stations